createdAt,value
2019-03-15T00:01:41.780Z,99254.98
2019-03-15T00:04:11.524Z,99264.00
2019-03-15T00:06:41.250Z,99258.89
2019-03-15T00:09:11.041Z,99264.51
2019-03-15T00:11:40.765Z,99259.63
2019-03-15T00:14:10.612Z,99256.59
2019-03-15T00:16:40.400Z,99256.59
2019-03-15T00:19:10.101Z,99259.92
2019-03-15T00:21:39.774Z,99258.64
2019-03-15T00:24:09.491Z,99262.41
2019-03-15T00:26:39.251Z,99270.39
2019-03-15T00:29:09.028Z,99271.13
2019-03-15T00:31:38.722Z,99273.37
2019-03-15T00:34:09.446Z,99279.66
2019-03-15T00:36:39.157Z,99272.13
2019-03-15T00:39:08.946Z,99278.54
2019-03-15T00:41:38.698Z,99276.27
2019-03-15T00:44:08.359Z,99291.38
2019-03-15T00:46:38.118Z,99270.84
2019-03-15T00:49:07.850Z,99264.16
2019-03-15T00:51:37.623Z,99271.25
2019-03-15T00:54:07.335Z,99283.07
2019-03-15T00:56:37.067Z,99274.00
2019-03-15T00:59:54.917Z,99274.27
2019-03-15T01:02:27.062Z,99286.22
2019-03-15T01:04:56.823Z,99291.34
2019-03-15T01:07:26.532Z,99293.48
2019-03-15T01:09:56.230Z,99300.08
2019-03-15T01:12:25.908Z,99296.00
2019-03-15T01:15:28.766Z,99303.48
2019-03-15T01:17:58.437Z,99307.93
2019-03-15T01:20:28.121Z,99307.93
2019-03-15T01:22:57.801Z,99312.64
2019-03-15T01:25:27.494Z,99308.52
2019-03-15T01:27:57.178Z,99323.50
2019-03-15T01:30:26.947Z,99321.16
2019-03-15T01:32:56.621Z,99325.16
2019-03-15T01:35:26.271Z,99324.98
2019-03-15T01:37:55.929Z,99326.99
2019-03-15T01:40:25.630Z,99335.91
2019-03-15T01:42:55.389Z,99332.69
2019-03-15T01:45:25.060Z,99324.98
2019-03-15T01:47:54.768Z,99321.36
2019-03-15T01:50:50.376Z,99315.61
2019-03-15T01:53:20.225Z,99316.43
2019-03-15T01:56:27.391Z,99321.30
2019-03-15T01:58:57.279Z,99319.47
2019-03-15T02:04:57.633Z,99316.05
2019-03-15T02:07:29.318Z,99323.95
2019-03-15T02:10:32.522Z,99323.13
2019-03-15T02:13:02.513Z,99341.39
2019-03-15T02:15:32.220Z,99336.34
2019-03-15T02:18:01.899Z,99349.38
2019-03-15T02:20:31.652Z,99342.09
2019-03-15T02:23:01.357Z,99352.86
2019-03-15T02:25:31.035Z,99349.78
2019-03-15T02:28:04.094Z,99363.13
2019-03-15T02:30:34.326Z,99359.72
2019-03-15T02:33:05.347Z,99360.72
2019-03-15T02:35:35.622Z,99362.55
2019-03-15T02:38:05.357Z,99365.58
2019-03-15T02:40:35.034Z,99363.54
2019-03-15T02:43:04.699Z,99366.61
2019-03-15T02:45:34.364Z,99372.68
2019-03-15T02:48:04.114Z,99367.61
2019-03-15T02:50:33.777Z,99375.94
2019-03-15T02:53:03.452Z,99378.38
2019-03-15T02:55:33.106Z,99383.44
2019-03-15T02:59:18.064Z,99384.44
2019-03-15T03:02:23.425Z,99378.16
2019-03-15T03:04:53.112Z,99392.94
2019-03-15T03:07:44.235Z,99379.38
2019-03-15T03:10:13.962Z,99389.14
2019-03-15T03:12:44.111Z,99398.47
2019-03-15T03:15:14.229Z,99406.58
2019-03-15T03:17:43.880Z,99425.06
2019-03-15T03:20:13.701Z,99428.94
2019-03-15T03:22:43.477Z,99424.26
2019-03-15T03:25:13.257Z,99431.55
2019-03-15T03:27:42.941Z,99431.13
2019-03-15T03:30:16.255Z,99440.27
2019-03-15T03:32:44.894Z,99442.07
2019-03-15T03:35:14.743Z,99448.72
2019-03-15T03:37:45.148Z,99447.56
2019-03-15T03:40:15.121Z,99446.69
2019-03-15T03:42:44.828Z,99455.20
2019-03-15T03:45:14.652Z,99457.59
2019-03-15T03:47:44.324Z,99464.89
2019-03-15T03:50:14.048Z,99465.72
2019-03-15T03:52:43.745Z,99457.23
2019-03-15T03:55:13.476Z,99461.95
2019-03-15T03:57:43.410Z,99463.61
2019-03-15T04:00:13.455Z,99472.12
2019-03-15T04:02:43.288Z,99476.02
2019-03-15T04:05:13.185Z,99478.09
2019-03-15T04:08:04.340Z,99475.25
2019-03-15T04:10:34.081Z,99471.84
2019-03-15T04:13:03.799Z,99466.14
2019-03-15T04:15:33.444Z,99476.52
2019-03-15T04:18:44.786Z,99475.70
2019-03-15T04:22:06.399Z,99485.04
2019-03-15T04:25:27.194Z,99489.49
2019-03-15T04:27:57.117Z,99491.31
2019-03-15T04:30:26.882Z,99491.31
2019-03-15T04:32:56.952Z,99500.66
2019-03-15T04:35:27.808Z,99502.28
2019-03-15T04:37:57.509Z,99508.77
2019-03-15T04:40:27.166Z,99515.89
2019-03-15T04:42:56.897Z,99522.98
2019-03-15T04:45:26.570Z,99529.70
2019-03-15T04:47:56.236Z,99533.13
2019-03-15T04:50:25.911Z,99543.48
2019-03-15T04:52:55.574Z,99551.02
2019-03-15T04:55:25.251Z,99542.88
2019-03-15T04:58:58.329Z,99545.92
2019-03-15T05:01:28.035Z,99558.52
2019-03-15T05:03:57.753Z,99555.47
2019-03-15T05:06:27.429Z,99562.97
2019-03-15T05:11:36.896Z,99569.45
2019-03-15T05:14:06.659Z,99574.11
2019-03-15T05:16:36.344Z,99580.41
2019-03-15T05:19:06.065Z,99583.44
2019-03-15T05:21:35.737Z,99583.38
2019-03-15T05:24:05.472Z,99584.36
2019-03-15T05:26:36.223Z,99582.92
2019-03-15T05:29:05.970Z,99587.96
2019-03-15T05:31:35.758Z,99582.08
2019-03-15T05:34:05.499Z,99587.94
2019-03-15T05:36:35.182Z,99580.02
2019-03-15T05:39:06.119Z,99598.84
2019-03-15T05:41:35.798Z,99594.44
2019-03-15T05:44:05.480Z,99595.23
2019-03-15T05:46:35.175Z,99591.10
2019-03-15T05:49:04.852Z,99592.94
2019-03-15T05:51:34.542Z,99598.78
2019-03-15T05:54:04.307Z,99598.75
2019-03-15T05:56:34.030Z,99604.42
2019-03-15T05:59:03.824Z,99599.86
2019-03-15T06:01:33.527Z,99606.33
2019-03-15T06:04:03.214Z,99603.63
2019-03-15T06:06:32.874Z,99604.79
2019-03-15T06:10:00.389Z,99616.55
2019-03-15T06:12:30.114Z,99605.11
2019-03-15T06:14:59.881Z,99615.67
2019-03-15T06:17:29.497Z,99617.02
2019-03-15T06:19:59.317Z,99627.27
2019-03-15T06:22:28.982Z,99619.66
2019-03-15T06:24:58.755Z,99625.70
2019-03-15T06:27:31.084Z,99628.63
2019-03-15T06:29:59.952Z,99636.99
2019-03-15T06:32:29.632Z,99633.31
2019-03-15T06:34:59.338Z,99629.63
2019-03-15T06:37:29.010Z,99622.79
2019-03-15T06:39:58.777Z,99618.55
2019-03-15T06:42:28.466Z,99616.52
2019-03-15T06:44:58.387Z,99611.33
2019-03-15T06:47:28.152Z,99607.41
2019-03-15T06:49:57.862Z,99615.64
2019-03-15T06:52:27.537Z,99618.00
2019-03-15T06:54:57.245Z,99625.85
2019-03-15T06:57:26.992Z,99624.52
2019-03-15T07:00:00.362Z,99614.92
2019-03-15T07:02:30.040Z,99615.82
2019-03-15T07:04:59.808Z,99611.11
2019-03-15T07:07:29.486Z,99613.91
2019-03-15T07:09:59.251Z,99620.72
2019-03-15T07:12:29.023Z,99617.24
2019-03-15T07:14:58.728Z,99613.88
2019-03-15T07:17:28.407Z,99614.13
2019-03-15T07:19:59.048Z,99608.91
2019-03-15T07:22:28.722Z,99621.69
2019-03-15T07:24:58.392Z,99620.37
2019-03-15T07:27:28.107Z,99615.81
2019-03-15T07:30:00.031Z,99620.30
2019-03-15T07:32:29.210Z,99619.81
2019-03-15T07:34:58.879Z,99618.22
2019-03-15T07:37:28.584Z,99616.44
2019-03-15T07:39:58.253Z,99626.77
2019-03-15T07:42:27.973Z,99626.00
2019-03-15T07:44:57.680Z,99630.79
2019-03-15T07:47:27.357Z,99634.86
2019-03-15T07:49:57.046Z,99633.20
2019-03-15T07:52:26.732Z,99619.65
2019-03-15T07:54:56.398Z,99607.42
2019-03-15T07:57:26.045Z,99611.76
2019-03-15T07:59:55.723Z,99610.13
2019-03-15T08:02:25.379Z,99613.17
2019-03-15T08:04:55.082Z,99614.41
2019-03-15T08:07:35.811Z,99614.59
2019-03-15T08:09:56.122Z,99612.09
2019-03-15T08:12:25.789Z,99619.06
2019-03-15T08:14:55.481Z,99612.11
2019-03-15T08:17:25.160Z,99605.33
2019-03-15T08:19:54.835Z,99603.66
2019-03-15T08:22:24.522Z,99590.41
2019-03-15T08:24:54.268Z,99590.41
2019-03-15T08:27:23.946Z,99600.44
2019-03-15T08:29:53.640Z,99599.70
2019-03-15T08:32:23.289Z,99599.70
2019-03-15T08:34:52.964Z,99594.24
2019-03-15T08:37:22.638Z,99583.19
2019-03-15T08:39:52.341Z,99583.19
2019-03-15T08:42:22.061Z,99589.75
2019-03-15T08:44:51.761Z,99591.42
2019-03-15T08:47:21.935Z,99593.45
2019-03-15T08:49:52.001Z,99614.40
2019-03-15T08:52:21.696Z,99617.66
2019-03-15T08:55:04.218Z,99611.05
2019-03-15T08:57:22.744Z,99606.38
2019-03-15T08:59:57.155Z,99606.53
2019-03-15T09:02:23.876Z,99606.53
2019-03-15T09:04:54.708Z,99603.22
2019-03-15T09:07:24.424Z,99599.73
2019-03-15T09:09:54.064Z,99593.41
2019-03-15T09:18:50.840Z,99591.64
2019-03-15T09:24:45.937Z,99593.32
2019-03-15T09:27:15.611Z,99593.48
2019-03-15T09:29:45.296Z,99600.61
2019-03-15T09:32:15.011Z,99570.36
2019-03-15T09:34:44.743Z,99579.55
2019-03-15T09:37:14.497Z,99583.19
2019-03-15T09:39:44.211Z,99566.66
2019-03-15T09:42:14.134Z,99562.96
2019-03-15T09:44:44.204Z,99556.42
2019-03-15T09:47:13.877Z,99542.14
2019-03-15T09:49:43.607Z,99545.09
2019-03-15T09:52:13.268Z,99546.63
2019-03-15T09:54:43.028Z,99552.47
2019-03-15T09:57:12.773Z,99554.81
2019-03-15T09:59:42.542Z,99540.92
2019-03-15T10:02:12.372Z,99545.55
2019-03-15T10:04:42.190Z,99553.16
2019-03-15T10:07:11.936Z,99546.91
2019-03-15T10:09:46.047Z,99544.66
2019-03-15T10:12:12.991Z,99535.08
2019-03-15T10:14:42.768Z,99530.48
2019-03-15T10:17:12.490Z,99525.39
2019-03-15T10:19:42.320Z,99522.42
2019-03-15T10:22:15.022Z,99522.84
2019-03-15T10:24:44.857Z,99516.33
2019-03-15T10:27:14.619Z,99498.02
2019-03-15T10:29:44.371Z,99493.98
2019-03-15T10:32:14.349Z,99480.16
2019-03-15T10:34:44.094Z,99472.81
2019-03-15T10:37:14.059Z,99472.17
2019-03-15T10:39:43.819Z,99459.75
2019-03-15T10:43:06.436Z,99462.65
2019-03-15T10:46:01.365Z,99459.80
2019-03-15T10:48:29.935Z,99459.01
2019-03-15T10:50:59.692Z,99456.55
2019-03-15T10:53:29.562Z,99450.81
2019-03-15T10:56:00.613Z,99445.09
2019-03-15T10:58:30.802Z,99445.08
2019-03-15T11:01:00.762Z,99447.42
2019-03-15T11:03:31.691Z,99436.44
2019-03-15T11:06:01.576Z,99442.47
2019-03-15T11:08:31.263Z,99439.07
2019-03-15T11:11:01.033Z,99436.40
2019-03-15T11:13:30.885Z,99440.06
2019-03-15T11:16:00.746Z,99429.31
2019-03-15T11:18:30.850Z,99421.95
2019-03-15T11:21:00.614Z,99415.86
2019-03-15T11:23:30.414Z,99408.75
2019-03-15T11:26:12.736Z,99403.84
2019-03-15T11:28:31.582Z,99414.05
2019-03-15T11:31:01.370Z,99406.34
2019-03-15T11:33:31.125Z,99400.66
2019-03-15T11:36:00.865Z,99397.37
2019-03-15T11:38:30.561Z,99386.61
2019-03-15T11:41:00.249Z,99378.66
2019-03-15T11:43:30.041Z,99387.01
2019-03-15T11:45:59.980Z,99376.02
2019-03-15T11:48:29.808Z,99370.12
2019-03-15T11:50:59.534Z,99360.37
2019-03-15T11:53:29.339Z,99341.16
2019-03-15T11:55:59.205Z,99331.53
2019-03-15T11:58:28.949Z,99327.56
2019-03-15T12:00:58.718Z,99312.31
2019-03-15T12:03:28.571Z,99303.23
2019-03-15T12:05:58.325Z,99292.00
2019-03-15T12:08:28.013Z,99299.30
2019-03-15T12:10:57.891Z,99287.66
2019-03-15T12:13:27.661Z,99283.61
2019-03-15T12:15:57.394Z,99273.17
2019-03-15T12:18:27.114Z,99263.90
2019-03-15T12:20:57.011Z,99257.61
2019-03-15T12:23:26.801Z,99246.69
2019-03-15T12:25:56.434Z,99244.73
2019-03-15T12:28:26.169Z,99243.95
2019-03-15T12:30:55.971Z,99232.42
2019-03-15T12:33:25.688Z,99236.73
2019-03-15T12:35:55.370Z,99227.86
2019-03-15T12:38:25.077Z,99224.69
2019-03-15T12:40:54.941Z,99220.66
2019-03-15T12:43:24.736Z,99211.17
2019-03-15T12:45:54.456Z,99208.33
2019-03-15T12:48:24.142Z,99195.17
2019-03-15T12:50:54.661Z,99190.16
2019-03-15T12:53:24.376Z,99179.25
2019-03-15T12:55:54.103Z,99176.21
2019-03-15T12:58:23.854Z,99168.75
2019-03-15T13:00:53.651Z,99166.30
2019-03-15T13:03:23.369Z,99176.82
2019-03-15T13:05:53.064Z,99169.54
2019-03-15T13:08:22.761Z,99162.05
2019-03-15T13:10:52.487Z,99157.80
2019-03-15T13:13:22.269Z,99158.98
2019-03-15T13:15:51.978Z,99153.09
2019-03-15T13:18:21.811Z,99143.73
2019-03-15T13:20:51.614Z,99138.45
2019-03-15T13:23:21.364Z,99128.89
2019-03-15T13:25:51.059Z,99146.83
2019-03-15T13:28:20.757Z,99144.98
2019-03-15T13:30:51.525Z,99128.09
2019-03-15T13:33:21.445Z,99129.23
2019-03-15T13:35:51.197Z,99149.78
2019-03-15T13:38:21.021Z,99142.22
2019-03-15T13:40:50.723Z,99132.28
2019-03-15T13:43:20.810Z,99111.66
2019-03-15T13:45:50.733Z,99111.66
2019-03-15T13:48:20.592Z,99109.78
2019-03-15T13:50:50.377Z,99110.93
2019-03-15T13:53:21.216Z,99104.08
2019-03-15T13:55:50.937Z,99104.08
2019-03-15T13:58:20.664Z,99101.52
2019-03-15T14:00:50.631Z,99091.37
2019-03-15T14:03:20.370Z,99091.37
2019-03-15T14:05:50.305Z,99085.26
2019-03-15T14:08:20.221Z,99078.98
2019-03-15T14:10:50.147Z,99072.70
2019-03-15T14:13:20.998Z,99072.70
2019-03-15T14:15:50.847Z,99075.78
2019-03-15T14:18:21.916Z,99070.82
2019-03-15T14:20:51.909Z,99054.14
2019-03-15T14:23:21.728Z,99055.02
2019-03-15T14:25:51.485Z,99057.77
2019-03-15T14:28:21.232Z,99049.27
2019-03-15T14:30:51.114Z,99041.66
2019-03-15T14:33:20.801Z,99033.05
2019-03-15T14:35:50.695Z,99017.87
2019-03-15T14:38:20.442Z,99017.87
2019-03-15T14:40:50.440Z,99022.52
2019-03-15T14:43:20.487Z,99019.31
2019-03-15T14:45:50.664Z,99008.40
2019-03-15T14:48:20.740Z,99005.59
2019-03-15T14:50:50.706Z,99008.37
2019-03-15T14:53:20.746Z,99005.07
2019-03-15T14:55:50.665Z,98989.02
2019-03-15T14:58:20.383Z,98989.77
2019-03-15T15:00:50.069Z,98986.61
2019-03-15T15:03:19.964Z,98980.94
2019-03-15T15:05:49.890Z,98976.45
2019-03-15T15:08:19.643Z,98959.03
2019-03-15T15:10:49.404Z,98956.75
2019-03-15T15:13:19.277Z,98965.02
2019-03-15T15:15:49.273Z,98959.98
2019-03-15T15:18:19.209Z,98969.02
2019-03-15T15:20:48.962Z,98975.73
2019-03-15T15:23:18.854Z,98980.79
2019-03-15T15:25:48.724Z,98982.70
2019-03-15T15:28:18.400Z,98989.63
2019-03-15T15:30:48.169Z,98992.45
2019-03-15T15:33:18.179Z,99012.67
2019-03-15T15:35:48.015Z,99002.20
2019-03-15T15:38:17.837Z,99006.91
2019-03-15T15:40:47.730Z,99012.48
2019-03-15T15:43:17.579Z,98997.17
2019-03-15T15:45:47.371Z,98982.84
2019-03-15T15:48:17.305Z,98997.89
2019-03-15T15:50:47.150Z,98992.78
2019-03-15T15:53:17.005Z,98990.13
2019-03-15T15:55:46.796Z,99002.47
2019-03-15T15:58:18.175Z,99003.57
2019-03-15T16:00:48.320Z,99011.89
2019-03-15T16:03:18.304Z,99020.80
2019-03-15T16:05:48.186Z,98992.64
2019-03-15T16:08:18.049Z,99004.53
2019-03-15T16:10:47.973Z,98986.66
2019-03-15T16:13:17.900Z,98989.42
2019-03-15T16:15:48.620Z,98991.44
2019-03-15T16:18:18.409Z,98990.66
2019-03-15T16:20:48.312Z,98985.05
2019-03-15T16:23:18.138Z,98995.75
2019-03-15T16:25:48.028Z,98989.94
2019-03-15T16:28:30.555Z,99010.25
2019-03-15T16:30:49.359Z,99012.66
2019-03-15T16:33:19.115Z,99013.77
2019-03-15T16:35:48.961Z,99007.45
2019-03-15T16:38:18.762Z,99007.70
2019-03-15T16:40:48.550Z,99013.80
2019-03-15T16:43:18.387Z,99017.07
2019-03-15T16:45:48.302Z,99014.67
2019-03-15T16:48:18.105Z,99013.29
2019-03-15T16:50:47.887Z,99017.52
2019-03-15T16:53:17.686Z,99032.87
2019-03-15T16:55:47.605Z,99040.95
2019-03-15T16:58:17.326Z,99039.11
2019-03-15T17:00:47.996Z,99052.62
2019-03-15T17:03:17.930Z,99056.98
2019-03-15T17:05:47.807Z,99062.63
2019-03-15T17:08:18.726Z,99069.88
2019-03-15T17:10:48.510Z,99088.81
2019-03-15T17:13:18.327Z,99081.51
2019-03-15T17:15:48.323Z,99080.09
2019-03-15T17:18:18.399Z,99076.85
2019-03-15T17:20:48.171Z,99089.44
2019-03-15T17:23:18.103Z,99081.53
2019-03-15T17:25:47.835Z,99087.69
2019-03-15T17:28:17.742Z,99091.78
2019-03-15T17:30:47.582Z,99104.20
2019-03-15T17:33:17.294Z,99108.92
2019-03-15T17:35:50.285Z,99119.03
2019-03-15T17:38:20.144Z,99118.09
2019-03-15T17:40:49.931Z,99118.09
2019-03-15T17:43:19.725Z,99124.39
2019-03-15T17:45:49.844Z,99127.03
2019-03-15T17:48:19.516Z,99126.62
2019-03-15T17:50:49.232Z,99142.41
2019-03-15T17:53:19.070Z,99145.84
2019-03-15T17:55:49.194Z,99156.18
2019-03-15T17:58:18.947Z,99141.20
2019-03-15T18:00:49.310Z,99153.12
2019-03-15T18:03:21.835Z,99144.42
2019-03-15T18:05:51.158Z,99155.36
2019-03-15T18:08:20.879Z,99158.56
2019-03-15T18:10:50.706Z,99170.94
2019-03-15T18:13:20.536Z,99163.63
2019-03-15T18:15:50.271Z,99186.50
2019-03-15T18:18:19.959Z,99191.17
2019-03-15T18:20:49.767Z,99191.71
2019-03-15T18:23:19.514Z,99195.95
2019-03-15T18:25:49.206Z,99201.28
2019-03-15T18:28:18.997Z,99211.59
2019-03-15T18:30:48.795Z,99211.77
2019-03-15T18:33:21.359Z,99210.77
2019-03-15T18:35:51.205Z,99221.71
2019-03-15T18:38:20.922Z,99217.22
2019-03-15T18:40:50.776Z,99226.97
2019-03-15T18:43:20.521Z,99239.95
2019-03-15T18:45:50.271Z,99230.45
2019-03-15T18:48:20.029Z,99229.20
2019-03-15T18:50:49.773Z,99229.38
2019-03-15T18:53:19.457Z,99234.92
2019-03-15T18:55:49.181Z,99240.94
2019-03-15T18:58:18.900Z,99233.67
2019-03-15T19:00:48.702Z,99240.52
2019-03-15T19:03:18.444Z,99250.66
2019-03-15T19:06:11.322Z,99257.98
2019-03-15T19:08:42.681Z,99266.73
2019-03-15T19:11:12.473Z,99273.38
2019-03-15T19:13:42.253Z,99266.93
2019-03-15T19:16:20.033Z,99275.84
2019-03-15T19:18:43.522Z,99282.92
2019-03-15T19:21:13.420Z,99262.47
2019-03-15T19:23:43.121Z,99264.92
2019-03-15T19:26:12.988Z,99278.09
2019-03-15T19:28:42.916Z,99288.88
2019-03-15T19:31:12.641Z,99287.47
2019-03-15T19:33:42.421Z,99295.17
2019-03-15T19:36:12.313Z,99300.05
2019-03-15T19:38:42.084Z,99294.98
2019-03-15T19:41:11.836Z,99317.91
2019-03-15T19:43:41.562Z,99312.41
2019-03-15T19:46:11.451Z,99318.09
2019-03-15T19:48:42.265Z,99328.18
2019-03-15T19:51:12.420Z,99328.40
2019-03-15T19:53:42.470Z,99327.14
2019-03-15T19:56:13.264Z,99329.14
2019-03-15T19:58:43.203Z,99339.29
2019-03-15T20:01:13.064Z,99329.14
2019-03-15T20:03:44.185Z,99353.44
2019-03-15T20:06:14.328Z,99358.73
2019-03-15T20:08:44.330Z,99365.20
2019-03-15T20:11:14.166Z,99375.50
2019-03-15T20:13:44.067Z,99358.09
2019-03-15T20:16:14.064Z,99379.13
2019-03-15T20:18:44.123Z,99394.50
2019-03-15T20:21:13.921Z,99394.27
2019-03-15T20:23:43.874Z,99390.63
2019-03-15T20:26:13.944Z,99388.42
2019-03-15T20:28:43.771Z,99413.54
2019-03-15T20:31:13.602Z,99420.63
2019-03-15T20:33:43.428Z,99425.09
2019-03-15T20:36:13.290Z,99425.06
2019-03-15T20:38:43.288Z,99427.13
2019-03-15T20:41:13.065Z,99421.02
2019-03-15T20:43:43.077Z,99430.37
2019-03-15T20:46:15.749Z,99436.84
2019-03-15T20:48:44.381Z,99441.89
2019-03-15T20:51:14.113Z,99457.90
2019-03-15T20:53:44.048Z,99450.98
2019-03-15T20:56:14.021Z,99454.41
2019-03-15T20:58:43.931Z,99464.98
2019-03-15T21:01:13.703Z,99459.08
2019-03-15T21:03:55.494Z,99463.12
2019-03-15T21:06:14.938Z,99469.75
2019-03-15T21:08:44.823Z,99471.83
2019-03-15T21:11:14.662Z,99473.25
2019-03-15T21:13:44.497Z,99469.34
2019-03-15T21:16:14.429Z,99477.09
2019-03-15T21:18:44.265Z,99476.42
2019-03-15T21:21:14.110Z,99476.08
2019-03-15T21:23:43.943Z,99479.88
2019-03-15T21:26:13.786Z,99490.97
2019-03-15T21:28:43.604Z,99488.93
2019-03-15T21:31:13.459Z,99493.77
2019-03-15T21:33:43.213Z,99496.80
2019-03-15T21:36:13.223Z,99502.69
2019-03-15T21:38:48.188Z,99512.60
2019-03-15T21:41:14.628Z,99512.34
2019-03-15T21:43:44.464Z,99517.59
2019-03-15T21:46:14.393Z,99520.27
2019-03-15T21:48:44.225Z,99519.30
2019-03-15T21:51:14.122Z,99518.05
2019-03-15T21:53:44.023Z,99526.87
2019-03-15T21:56:13.814Z,99531.16
2019-03-15T21:58:43.473Z,99531.75
2019-03-15T22:01:13.268Z,99530.12
2019-03-15T22:03:43.158Z,99545.17
2019-03-15T22:06:13.064Z,99566.45
2019-03-15T22:08:42.852Z,99576.52
2019-03-15T22:11:21.035Z,99580.60
2019-03-15T22:13:44.455Z,99572.48
2019-03-15T22:16:14.310Z,99570.70
2019-03-15T22:18:44.122Z,99581.45
2019-03-15T22:21:14.101Z,99581.04
2019-03-15T22:23:43.981Z,99588.53
2019-03-15T22:26:15.108Z,99594.97
2019-03-15T22:28:44.974Z,99608.98
2019-03-15T22:31:16.827Z,99608.62
2019-03-15T22:33:46.665Z,99608.86
2019-03-15T22:36:16.517Z,99601.14
2019-03-15T22:38:46.315Z,99613.47
2019-03-15T22:41:16.269Z,99620.04
2019-03-15T22:43:46.193Z,99628.78
2019-03-15T22:46:16.207Z,99621.91
2019-03-15T22:48:45.976Z,99623.23
2019-03-15T22:51:15.929Z,99625.90
2019-03-15T22:53:45.802Z,99631.58
2019-03-15T22:56:15.638Z,99644.81
2019-03-15T22:58:45.482Z,99643.48
2019-03-15T23:01:15.390Z,99638.56
2019-03-15T23:03:45.230Z,99641.37
2019-03-15T23:06:15.111Z,99643.28
2019-03-15T23:08:44.903Z,99652.94
2019-03-15T23:11:14.780Z,99661.55
2019-03-15T23:13:44.602Z,99664.47
2019-03-15T23:16:14.550Z,99689.08
2019-03-15T23:18:44.492Z,99682.19
2019-03-15T23:21:14.367Z,99673.98
2019-03-15T23:23:44.088Z,99681.66
2019-03-15T23:26:14.053Z,99685.16
2019-03-15T23:28:47.128Z,99681.36
2019-03-15T23:31:15.357Z,99695.06
2019-03-15T23:33:45.165Z,99701.85
2019-03-15T23:36:15.002Z,99699.73
2019-03-15T23:38:45.375Z,99697.72
2019-03-15T23:41:15.176Z,99715.59
2019-03-15T23:43:44.960Z,99723.94
2019-03-15T23:46:14.667Z,99726.44
2019-03-15T23:48:44.597Z,99710.66
2019-03-15T23:51:14.363Z,99725.69
2019-03-15T23:53:44.268Z,99730.41
2019-03-15T23:56:14.074Z,99725.55
2019-03-15T23:58:43.931Z,99727.69
